Time;durP1;ratioP1;P1;durP2;ratioP2;P2;SDS_P1;SDS_P2;PMS_P1;PMS_P2;Temp;Humidity;BMP_temperature;BMP_pressure;BME280_temperature;BME280_humidity;BME280_pressure;Samples;Min_cycle;Max_cycle;Signal;HPM_P1;HPM_P2
2021/09/26 00:01:02;;;;;;;;;;;12.20;99.90;;;;;;5037122;28;20081;-62
2021/09/26 00:03:28;;;;;;;6.28;3.25;;;12.30;99.90;;;;;;5062954;28;19916;-62
2021/09/26 00:05:54;;;;;;;;;;;12.20;99.90;;;;;;5061710;28;20135;-62
2021/09/26 00:08:19;;;;;;;9.13;3.30;;;12.20;99.90;;;;;;5062435;28;19985;-61
2021/09/26 00:10:45;;;;;;;;;;;12.20;99.90;;;;;;5061947;28;20028;-63
2021/09/26 00:13:10;;;;;;;8.40;3.20;;;12.20;99.90;;;;;;5061717;28;19924;-62
2021/09/26 00:15:36;;;;;;;;;;;12.30;99.90;;;;;;5058049;28;20500;-61
2021/09/26 00:18:02;;;;;;;5.82;3.45;;;12.30;99.90;;;;;;5032786;28;20427;-60
2021/09/26 00:20:27;;;;;;;;;;;12.30;99.90;;;;;;5029220;28;20034;-62
2021/09/26 00:22:53;;;;;;;9.20;3.00;;;12.30;99.90;;;;;;5028874;28;19959;-61
2021/09/26 00:25:19;;;;;;;;;;;12.30;99.90;;;;;;5029838;28;20045;-62
2021/09/26 00:27:45;;;;;;;4.43;2.80;;;12.30;99.90;;;;;;5027144;28;20329;-62
2021/09/26 00:30:14;;;;;;;3.72;2.60;;;12.40;99.90;;;;;;5027662;28;20107;-62
2021/09/26 00:32:44;;;;;;;4.40;2.70;;;12.40;99.90;;;;;;5027531;28;20041;-61
2021/09/26 00:35:10;;;;;;;9.45;3.67;;;12.30;99.90;;;;;;5028709;28;20043;-61
2021/09/26 00:37:37;;;;;;;7.35;3.20;;;12.30;99.90;;;;;;5028106;28;20128;-62
2021/09/26 00:40:05;;;;;;;5.20;3.10;;;12.30;99.90;;;;;;5027916;28;20409;-61
2021/09/26 00:42:31;;;;;;;4.70;2.88;;;12.30;99.90;;;;;;5026816;28;20100;-61
2021/09/26 00:44:58;;;;;;;;;;;12.30;99.90;;;;;;5029581;28;20049;-61
2021/09/26 00:47:26;;;;;;;6.22;2.90;;;12.30;99.90;;;;;;5027471;28;19928;-62
2021/09/26 00:49:52;;;;;;;3.35;2.53;;;12.40;99.90;;;;;;5028234;28;20069;-62
2021/09/26 00:52:19;;;;;;;6.60;2.95;;;12.50;99.90;;;;;;5028116;28;20045;-61
2021/09/26 00:54:45;;;;;;;6.82;2.92;;;12.40;99.90;;;;;;5027614;28;20041;-61
2021/09/26 00:57:11;;;;;;;7.15;3.40;;;12.50;99.90;;;;;;5024741;28;20053;-61
2021/09/26 00:59:37;;;;;;;;;;;12.50;99.90;;;;;;5027700;28;20037;-61
2021/09/26 01:02:03;;;;;;;6.03;2.53;;;12.50;99.90;;;;;;5028325;28;19966;-62
2021/09/26 01:04:29;;;;;;;8.25;3.80;;;12.70;99.90;;;;;;5027954;28;20529;-61
2021/09/26 01:07:05;;;;;;;4.22;2.63;;;12.80;99.90;;;;;;5026736;28;20064;-62
2021/09/26 01:10:05;;;;;;;8.13;3.45;;;13.00;99.90;;;;;;5028383;28;20042;-63
2021/09/26 01:12:43;;;;;;;3.45;2.58;;;13.20;99.90;;;;;;5027133;28;20041;-62
2021/09/26 01:15:24;;;;;;;5.63;2.70;;;13.20;99.90;;;;;;5027372;28;20038;-62
2021/09/26 01:18:00;;;;;;;17.15;10.27;;;13.30;99.90;;;;;;5027508;28;20041;-61
2021/09/26 01:20:44;;;;;;;;;;;13.40;99.90;;;;;;5027682;28;20201;-62
2021/09/26 01:23:26;;;;;;;10.27;5.15;;;13.50;99.90;;;;;;5027835;28;20055;-61
2021/09/26 01:26:13;;;;;;;10.98;3.95;;;13.60;99.90;;;;;;5026490;28;20056;-62
2021/09/26 01:28:58;;;;;;;9.95;3.75;;;13.60;99.90;;;;;;5025353;28;20040;-62
2021/09/26 01:31:45;;;;;;;6.50;3.13;;;13.70;99.90;;;;;;5033031;28;20044;-61
2021/09/26 01:34:19;;;;;;;4.15;2.83;;;13.70;99.90;;;;;;5025518;28;20456;-62
2021/09/26 01:36:52;;;;;;;6.32;3.53;;;13.80;99.90;;;;;;5026726;28;20064;-61
2021/09/26 01:39:22;;;;;;;6.90;3.13;;;13.80;99.90;;;;;;5026560;28;20050;-62
2021/09/26 01:42:14;;;;;;;3.42;2.65;;;13.90;99.90;;;;;;5026875;28;20385;-62
2021/09/26 01:45:25;;;;;;;8.48;3.03;;;13.90;99.90;;;;;;5027037;28;20049;-61
2021/09/26 01:48:01;;;;;;;7.53;3.22;;;13.90;99.90;;;;;;5024124;28;20045;-62
2021/09/26 01:50:27;;;;;;;6.57;3.33;;;13.90;99.90;;;;;;5007891;28;20045;-62
2021/09/26 01:52:55;;;;;;;9.20;5.47;;;13.90;99.90;;;;;;5017806;28;20037;-62
2021/09/26 01:55:24;;;;;;;6.53;3.70;;;14.00;99.90;;;;;;5027742;28;20053;-61
2021/09/26 01:57:51;;;;;;;4.85;2.80;;;14.00;99.90;;;;;;5026408;28;20049;-61
2021/09/26 02:00:17;;;;;;;6.70;3.20;;;14.00;99.90;;;;;;5027056;28;20124;-62
2021/09/26 02:02:44;;;;;;;;;;;14.00;99.90;;;;;;5028021;28;20509;-62
2021/09/26 02:05:11;;;;;;;4.63;3.60;;;14.00;99.90;;;;;;5027148;28;19979;-62
2021/09/26 02:07:43;;;;;;;5.90;3.63;;;14.10;99.90;;;;;;5026883;28;20054;-62
2021/09/26 02:10:09;;;;;;;5.47;3.58;;;14.20;99.90;;;;;;5026858;28;20634;-62
2021/09/26 02:12:35;;;;;;;5.57;3.50;;;14.10;99.90;;;;;;5026883;28;20095;-62
2021/09/26 02:15:05;;;;;;;;;;;14.10;99.90;;;;;;5027484;28;20041;-62
2021/09/26 02:17:31;;;;;;;4.97;3.53;;;14.00;99.90;;;;;;5044938;28;20023;-62
2021/09/26 02:20:00;;;;;;;9.05;3.75;;;14.00;99.90;;;;;;5046670;28;20524;-62
2021/09/26 02:22:27;;;;;;;9.60;3.50;;;14.00;99.90;;;;;;5046560;28;20049;-60
2021/09/26 02:24:53;;;;;;;9.50;4.05;;;14.10;99.90;;;;;;5028014;28;20037;-62
2021/09/26 02:27:19;;;;;;;;;;;14.20;99.90;;;;;;5025829;28;20111;-61
2021/09/26 02:29:44;;;;;;;6.85;4.10;;;14.30;99.90;;;;;;5026327;28;19917;-62
2021/09/26 02:32:10;;;;;;;;;;;14.40;99.90;;;;;;5028237;28;20037;-61
2021/09/26 02:34:35;;;;;;;10.20;4.10;;;14.50;99.90;;;;;;5026509;28;19917;-62
2021/09/26 02:37:01;;;;;;;;;;;14.60;99.90;;;;;;5025203;28;20044;-61
2021/09/26 02:39:26;;;;;;;6.43;3.42;;;14.70;99.90;;;;;;5025418;28;19917;-62
2021/09/26 02:41:53;;;;;;;;;;;14.80;99.90;;;;;;5026919;28;20559;-61
2021/09/26 02:44:38;;;;;;;5.70;4.00;;;15.00;99.90;;;;;;5026046;28;20054;-62
2021/09/26 02:47:12;;;;;;;9.48;4.47;;;15.00;99.90;;;;;;5040932;28;20497;-61
2021/09/26 02:49:39;;;;;;;10.35;3.65;;;15.10;99.90;;;;;;5045866;28;20075;-61
2021/09/26 02:52:06;;;;;;;7.85;4.03;;;15.10;99.90;;;;;;5045792;28;20052;-62
2021/09/26 02:54:36;;;;;;;10.43;4.45;;;15.10;99.90;;;;;;5045552;28;20056;-62
2021/09/26 02:57:04;;;;;;;7.53;4.05;;;15.10;99.90;;;;;;5045556;28;20033;-62
2021/09/26 02:59:30;;;;;;;9.15;3.75;;;15.10;99.90;;;;;;5043008;28;20047;-61
2021/09/26 03:01:55;;;;;;;;;;;15.00;99.90;;;;;;5033103;28;20034;-61
2021/09/26 03:04:21;;;;;;;10.05;4.95;;;15.00;99.90;;;;;;5025858;28;19925;-62
2021/09/26 03:06:47;;;;;;;11.23;4.57;;;15.10;99.90;;;;;;5026733;28;20038;-62
2021/09/26 03:09:13;;;;;;;;;;;15.10;99.90;;;;;;5046704;28;20036;-63
2021/09/26 03:11:38;;;;;;;6.53;4.18;;;15.10;99.90;;;;;;5046105;28;20288;-61
2021/09/26 03:14:04;;;;;;;;;;;15.10;99.90;;;;;;5031939;28;20099;-62
2021/09/26 03:16:30;;;;;;;8.93;4.22;;;15.10;99.90;;;;;;5025015;28;20066;-61
2021/09/26 03:18:56;;;;;;;7.72;4.78;;;15.10;99.90;;;;;;5026450;28;20041;-62
2021/09/26 03:21:22;;;;;;;;;;;15.10;99.90;;;;;;5027111;28;20046;-62
2021/09/26 03:23:47;;;;;;;8.23;4.25;;;15.10;99.90;;;;;;5026746;28;19917;-61
2021/09/26 03:26:13;;;;;;;;;;;15.10;99.90;;;;;;5026353;28;20095;-61
2021/09/26 03:28:38;;;;;;;5.75;3.63;;;15.10;99.90;;;;;;5025552;28;19917;-62
2021/09/26 03:31:04;;;;;;;;;;;15.10;99.90;;;;;;5027130;28;20465;-62
2021/09/26 03:33:29;;;;;;;5.95;4.10;;;15.10;99.90;;;;;;5041911;28;20376;-61
2021/09/26 03:35:55;;;;;;;;;;;15.00;99.90;;;;;;5025564;28;20568;-61
2021/09/26 03:38:20;;;;;;;9.77;4.15;;;15.00;99.90;;;;;;5026090;28;20002;-60
2021/09/26 03:40:46;;;;;;;;;;;15.10;99.90;;;;;;5025881;28;20517;-62
2021/09/26 03:43:12;;;;;;;7.90;4.25;;;15.10;99.90;;;;;;5025915;28;20023;-61
2021/09/26 03:45:37;;;;;;;;;;;15.00;99.90;;;;;;5025354;28;20047;-61
2021/09/26 03:48:03;;;;;;;11.52;4.25;;;15.00;99.90;;;;;;5025846;28;19925;-61
2021/09/26 03:50:29;;;;;;;;;;;15.00;99.90;;;;;;5025725;28;20034;-62
2021/09/26 03:52:54;;;;;;;8.15;4.25;;;15.00;99.90;;;;;;5027397;28;19928;-61
2021/09/26 03:55:20;;;;;;;;;;;15.00;99.90;;;;;;5030335;28;20572;-61
2021/09/26 03:57:46;;;;;;;8.88;4.65;;;15.00;99.90;;;;;;5028260;28;19921;-61
2021/09/26 04:00:15;;;;;;;11.27;5.32;;;15.00;99.90;;;;;;5028929;28;20453;-62
2021/09/26 04:02:41;;;;;;;5.45;4.47;;;15.00;99.90;;;;;;5028732;28;20048;-63
2021/09/26 04:05:08;;;;;;;8.25;4.75;;;15.00;99.90;;;;;;5028797;28;20033;-63
2021/09/26 04:07:34;;;;;;;12.98;5.25;;;15.10;99.90;;;;;;5027862;28;20127;-63
2021/09/26 04:10:00;;;;;;;8.65;5.55;;;15.10;99.90;;;;;;5028203;28;20034;-64
2021/09/26 04:12:26;;;;;;;;;;;15.10;99.90;;;;;;5028689;28;20044;-64
2021/09/26 04:14:51;;;;;;;8.60;4.78;;;15.10;99.90;;;;;;5028984;28;19917;-63
2021/09/26 04:17:17;;;;;;;9.32;5.15;;;15.20;99.90;;;;;;5027417;28;20072;-63
2021/09/26 04:19:42;;;;;;;;;;;15.20;99.90;;;;;;5029411;28;20066;-64
2021/09/26 04:22:08;;;;;;;9.85;5.88;;;15.20;99.90;;;;;;5027647;28;19963;-63
2021/09/26 04:24:33;;;;;;;;;;;15.20;99.90;;;;;;5028413;28;20037;-64
2021/09/26 04:26:59;;;;;;;5.60;4.40;;;;;;;;;;5025998;28;19982;-64
2021/09/26 04:29:25;;;;;;;8.30;4.65;;;;;;;;;;5028430;28;20501;-63
2021/09/26 04:31:51;;;;;;;;;;;;;;;;;;5028634;28;20029;-63
2021/09/26 04:34:17;;;;;;;10.55;4.80;;;;;;;;;;5029139;28;19917;-63
2021/09/26 04:36:43;;;;;;;9.15;5.15;;;;;;;;;;5027987;28;20584;-63
2021/09/26 04:39:09;;;;;;;;;;;;;;;;;;5033915;28;20120;-63
2021/09/26 04:41:35;;;;;;;6.57;4.45;;;;;;;;;;5028683;28;19978;-64
2021/09/26 04:44:01;;;;;;;;;;;;;;;;;;5029435;28;20038;-64
2021/09/26 04:46:27;;;;;;;11.80;5.10;;;;;;;;;;5027689;28;19936;-64
2021/09/26 04:48:53;;;;;;;;;;;;;;;;;;5028639;28;20041;-64
2021/09/26 04:51:19;;;;;;;7.65;4.47;;;;;;;;;;5028350;28;19917;-65
2021/09/26 04:53:45;;;;;;;;;;;;;;;;;;5028858;28;20483;-64
2021/09/26 04:56:11;;;;;;;11.00;4.88;;;;;;;;;;5028020;28;19917;-64
2021/09/26 04:58:37;;;;;;;;;;;;;;;;;;5028326;28;20041;-63
2021/09/26 05:01:03;;;;;;;6.63;4.40;;;;;;;;;;5028413;28;19913;-64
2021/09/26 05:03:29;;;;;;;;;;;;;;;;;;5029108;28;20120;-64
2021/09/26 05:05:55;;;;;;;7.38;4.95;;;;;;;;;;5032132;28;19928;-63
2021/09/26 05:08:21;;;;;;;;;;;;;;;;;;5046060;28;20784;-64
2021/09/26 05:10:47;;;;;;;7.28;4.13;;;;;;;;;;5029198;28;19913;-63
2021/09/26 05:13:12;;;;;;;;;;;;;;;;;;5028655;28;20037;-65
2021/09/26 05:15:38;;;;;;;6.07;4.40;;;;;;;;;;5027078;28;20399;-63
2021/09/26 05:18:04;;;;;;;;;;;;;;;;;;5028968;28;20045;-63
2021/09/26 05:20:30;;;;;;;7.32;4.47;;;;;;;;;;5027697;28;19913;-63
2021/09/26 05:22:58;;;;;;;7.80;4.50;;;;;;;;;;5028042;28;20037;-63
2021/09/26 05:25:24;;;;;;;6.43;4.85;;;;;;;;;;5028149;28;20042;-64
2021/09/26 05:27:50;;;;;;;;;;;;;;;;;;5022693;28;20044;-64
2021/09/26 05:30:16;;;;;;;8.98;4.95;;;;;;;;;;5026853;28;19917;-64
2021/09/26 05:32:42;;;;;;;7.55;5.25;;;;;;;;;;5027775;28;20096;-64
2021/09/26 05:35:08;;;;;;;;;;;;;;;;;;5028434;28;20037;-63
2021/09/26 05:37:34;;;;;;;10.02;5.45;;;;;;;;;;5031510;28;19916;-64
2021/09/26 05:40:00;;;;;;;;;;;;;;;;;;5027497;28;20472;-64
2021/09/26 05:42:26;;;;;;;7.53;5.32;;;;;;;;;;5027657;28;19917;-63
2021/09/26 05:44:52;;;;;;;8.93;5.50;;;;;;;;;;5027514;28;20072;-63
2021/09/26 05:47:18;;;;;;;;;;;;;;;;;;5026699;28;20046;-64
2021/09/26 05:49:44;;;;;;;9.95;5.07;;;;;;;;;;5026522;28;19920;-64
2021/09/26 05:52:09;;;;;;;;;;;;;;;;;;5027584;28;20038;-64
2021/09/26 05:54:36;;;;;;;6.95;5.05;;;;;;;;;;5027192;28;19921;-64
2021/09/26 05:57:02;;;;;;;10.73;5.53;;;;;;;;;;5025663;28;20041;-64
2021/09/26 05:59:31;;;;;;;7.85;4.90;;;;;;;;;;5021497;28;20037;-63
2021/09/26 06:01:57;;;;;;;6.53;5.28;;;;;;;;;;5023256;28;20048;-64
2021/09/26 06:04:23;;;;;;;;;;;;;;;;;;5026099;28;20099;-64
2021/09/26 06:06:49;;;;;;;10.60;5.72;;;;;;;;;;5025519;28;20020;-63
2021/09/26 06:09:15;;;;;;;13.40;5.95;;;;;;;;;;5025479;28;20033;-65
2021/09/26 06:11:41;;;;;;;;;;;;;;;;;;5027233;28;20188;-64
2021/09/26 06:14:07;;;;;;;9.70;4.65;;;;;;;;;;5023468;28;20004;-65
2021/09/26 06:16:33;;;;;;;17.38;9.07;;;;;;;;;;5024246;28;20123;-64
2021/09/26 06:18:59;;;;;;;;;;;;;;;;;;5026661;28;20103;-64
2021/09/26 06:21:25;;;;;;;14.43;9.88;;;;;;;;;;5026870;28;19928;-63
2021/09/26 06:23:51;;;;;;;;;;;;;;;;;;5027415;28;20041;-63
2021/09/26 06:26:18;;;;;;;13.63;7.35;;;;;;;;;;5025025;28;19925;-64
2021/09/26 06:28:44;;;;;;;12.82;7.93;;;;;;;;;;5026837;28;20042;-63
2021/09/26 06:31:10;;;;;;;;;;;;;;;;;;5027008;28;20033;-63
2021/09/26 06:33:40;;;;;;;13.90;5.65;;;;;;;;;;5027112;28;20023;-63
2021/09/26 06:36:06;;;;;;;12.02;6.45;;;;;;;;;;5026490;28;20461;-67
2021/09/26 06:38:32;;;;;;;;;;;;;;;;;;5040137;28;20475;-67
2021/09/26 06:40:58;;;;;;;10.02;7.10;;;;;;;;;;5039159;28;19926;-63
2021/09/26 06:43:24;;;;;;;11.18;6.47;;;;;;;;;;5045739;28;20060;-63
2021/09/26 06:45:50;;;;;;;7.30;5.55;;;;;;;;;;5045586;28;20047;-62
2021/09/26 06:48:16;;;;;;;;;;;;;;;;;;5046077;28;20116;-62
2021/09/26 06:50:43;;;;;;;11.18;7.05;;;;;;;;;;5046503;28;20472;-64
2021/09/26 06:53:09;;;;;;;13.55;7.35;;;;;;;;;;5046174;28;20036;-63
2021/09/26 06:55:35;;;;;;;12.07;7.35;;;;;;;;;;5046536;28;20649;-63
2021/09/26 06:58:00;;;;;;;;;;;;;;;;;;5042772;28;20654;-62
2021/09/26 07:00:27;;;;;;;15.38;7.40;;;;;;;;;;5028047;28;19975;-60
2021/09/26 07:02:53;;;;;;;10.07;6.35;;;;;;;;;;5046183;28;20102;-60
2021/09/26 07:05:18;;;;;;;;;;;;;;;;;;5046959;28;20477;-65
2021/09/26 07:07:46;;;;;;;7.78;5.30;;;;;;;;;;5051088;28;19928;-64
2021/09/26 07:10:13;;;;;;;8.38;5.32;;;;;;;;;;5041605;28;20045;-63
2021/09/26 07:12:39;;;;;;;9.23;6.05;;;;;;;;;;5040053;28;20828;-64
2021/09/26 07:15:07;;;;;;;9.43;6.20;;;;;;;;;;5046232;28;20044;-64
2021/09/26 07:17:33;;;;;;;7.95;5.90;;;;;;;;;;5045213;28;20045;-63
2021/09/26 07:19:59;;;;;;;13.32;5.55;;;;;;;;;;5046037;28;20507;-64
2021/09/26 07:22:25;;;;;;;;;;;;;;;;;;5046279;28;20116;-63
2021/09/26 07:24:52;;;;;;;8.00;5.60;;;;;;;;;;5046540;28;20262;-65
2021/09/26 07:27:19;;;;;;;8.27;5.55;;;;;;;;;;5042725;28;20151;-65
2021/09/26 07:29:45;;;;;;;9.50;5.40;;;;;;;;;;5049188;28;20095;-64
2021/09/26 07:32:12;;;;;;;9.77;5.70;;;;;;;;;;5049453;28;20090;-68
2021/09/26 07:34:38;;;;;;;6.63;4.95;;;;;;;;;;5050464;28;20032;-64
2021/09/26 07:37:05;;;;;;;7.78;5.70;;;;;;;;;;5052670;28;20090;-64
2021/09/26 07:39:31;;;;;;;12.75;5.95;;;;;;;;;;5051912;28;20128;-63
2021/09/26 07:41:57;;;;;;;11.68;6.63;;;;;;;;;;5050036;28;20044;-62
2021/09/26 07:44:23;;;;;;;9.82;5.65;;;;;;;;;;5049897;28;20045;-63
2021/09/26 07:46:50;;;;;;;;;;;;;;;;;;5049376;28;20049;-64
2021/09/26 07:49:16;;;;;;;14.00;10.13;;;;;;;;;;5049836;28;19917;-62
2021/09/26 07:51:42;;;;;;;14.32;8.00;;;;;;;;;;5046909;28;20884;-64
2021/09/26 07:54:08;;;;;;;10.32;6.38;;;;;;;;;;5044906;28;20385;-62
2021/09/26 07:56:35;;;;;;;10.95;6.20;;;;;;;;;;5046688;28;20106;-62
2021/09/26 07:59:01;;;;;;;11.70;6.47;;;;;;;;;;5048587;28;20043;-63
2021/09/26 08:01:28;;;;;;;14.73;5.95;;;;;;;;;;5047589;28;20484;-63
2021/09/26 08:03:53;;;;;;;;;;;;;;;;;;5051257;28;20485;-63
2021/09/26 08:06:19;;;;;;;15.45;8.65;;;;;;;;;;5049039;28;19927;-63
2021/09/26 08:08:45;;;;;;;28.48;13.30;;;;;;;;;;5055757;28;20524;-63
2021/09/26 08:11:11;;;;;;;;;;;;;;;;;;5050349;28;20464;-64
2021/09/26 08:13:37;;;;;;;9.98;3.90;;;;;;;;;;5049777;28;19921;-63
2021/09/26 08:16:04;;;;;;;10.63;4.55;;;;;;;;;;5049229;28;20040;-63
2021/09/26 08:18:30;;;;;;;12.07;4.38;;;;;;;;;;5047389;28;20099;-63
2021/09/26 08:20:56;;;;;;;11.68;5.72;;;;;;;;;;5048362;28;20033;-63
2021/09/26 08:23:22;;;;;;;;;;;;;;;;;;5050027;28;20041;-64
2021/09/26 08:25:48;;;;;;;7.68;4.22;;;;;;;;;;5049099;28;19978;-63
2021/09/26 08:28:13;;;;;;;;;;;;;;;;;;5049775;28;20111;-65
2021/09/26 08:30:40;;;;;;;13.77;4.28;;;;;;;;;;5048905;28;19990;-64
2021/09/26 08:33:06;;;;;;;8.05;4.32;;;;;;;;;;5050251;28;20070;-64
2021/09/26 08:35:33;;;;;;;11.05;4.43;;;;;;;;;;5049616;28;20033;-64
2021/09/26 08:37:59;;;;;;;16.50;4.20;;;;;;;;;;5047521;28;20059;-63
2021/09/26 08:40:24;;;;;;;;;;;;;;;;;;5050434;28;20637;-64
2021/09/26 08:42:50;;;;;;;11.13;4.10;;;;;;;;;;5049149;28;19916;-64
2021/09/26 08:45:18;;;;;;;7.38;4.45;;;;;;;;;;5049394;28;20036;-64
2021/09/26 08:47:44;;;;;;;13.48;4.70;;;;;;;;;;5048964;28;20653;-64
2021/09/26 08:50:12;;;;;;;7.82;4.03;;;;;;;;;;5049307;28;20041;-64
2021/09/26 08:52:41;;;;;;;6.28;3.55;;;;;;;;;;5049113;28;20033;-64
2021/09/26 08:55:07;;;;;;;14.05;4.00;;;;;;;;;;5048643;28;20049;-64
2021/09/26 08:57:33;;;;;;;14.48;4.30;;;;;;;;;;5048443;28;20045;-62
2021/09/26 08:59:59;;;;;;;14.82;3.78;;;;;;;;;;5048463;28;20029;-63
2021/09/26 09:02:25;;;;;;;22.02;4.85;;;;;;;;;;5048333;28;20041;-63
2021/09/26 09:04:51;;;;;;;10.60;4.70;;;;;;;;;;5048775;28;20754;-64
2021/09/26 09:07:17;;;;;;;;;;;;;;;;;;5053801;28;20032;-63
2021/09/26 09:09:53;;;;;;;13.10;4.82;;;;;;;;;;5046527;28;19917;-63
2021/09/26 09:12:25;;;;;;;9.07;4.22;;;;;;;;;;5048558;28;20144;-64
2021/09/26 09:14:56;;;;;;;9.77;4.00;;;;;;;;;;5048890;28;20119;-64
2021/09/26 09:17:29;;;;;;;12.05;4.20;;;;;;;;;;5047297;28;20052;-63
2021/09/26 09:20:10;;;;;;;8.40;4.30;;;;;;;;;;5048236;28;20539;-62
2021/09/26 09:22:37;;;;;;;9.13;4.18;;;;;;;;;;5046398;28;20449;-64
2021/09/26 09:25:03;;;;;;;11.75;4.38;;;;;;;;;;5048337;28;20044;-63
2021/09/26 09:27:29;;;;;;;11.20;4.25;;;;;;;;;;5047662;28;20410;-64
2021/09/26 09:29:55;;;;;;;;;;;;;;;;;;5048438;28;20043;-64
2021/09/26 09:32:23;;;;;;;12.35;4.47;;;;;;;;;;5046469;28;19921;-64
2021/09/26 09:34:49;;;;;;;10.68;4.70;;;;;;;;;;5041019;28;20040;-64
2021/09/26 09:37:15;;;;;;;7.28;3.80;;;;;;;;;;5041744;28;20041;-63
2021/09/26 09:39:42;;;;;;;6.65;3.30;;;;;;;;;;5043814;28;20435;-64
2021/09/26 09:42:22;;;;;;;9.82;3.85;;;;;;;;;;5044616;28;20139;-64
2021/09/26 09:44:48;;;;;;;8.00;3.63;;;;;;;;;;5047694;28;20044;-64
2021/09/26 09:47:16;;;;;;;8.50;4.30;;;;;;;;;;5045168;28;20071;-64
2021/09/26 09:49:53;;;;;;;6.35;3.80;;;;;;;;;;5046463;28;20037;-63
2021/09/26 09:52:39;;;;;;;12.48;4.40;;;;;;;;;;5047565;28;20047;-63
2021/09/26 09:55:05;;;;;;;7.43;4.05;;;;;;;;;;5048172;28;20059;-63
2021/09/26 09:57:31;;;;;;;6.30;3.53;;;;;;;;;;5045546;28;20045;-63
2021/09/26 09:59:57;;;;;;;14.70;4.82;;;;;;;;;;5045196;28;20041;-63
2021/09/26 10:02:33;;;;;;;8.10;4.05;;;;;;;;;;5046710;28;20041;-63
2021/09/26 10:05:02;;;;;;;8.73;3.92;;;;;;;;;;5045332;28;20041;-63
2021/09/26 10:07:28;;;;;;;9.23;3.90;;;;;;;;;;5052097;28;20049;-63
2021/09/26 10:09:55;;;;;;;6.07;4.30;;;;;;;;;;5046250;28;20102;-63
2021/09/26 10:12:25;;;;;;;9.40;3.70;;;;;;;;;;5045432;28;20072;-63
2021/09/26 10:14:53;;;;;;;11.45;6.00;;;;;;;;;;5043401;28;20064;-63
2021/09/26 10:17:19;;;;;;;12.63;5.70;;;;;;;;;;5031240;28;20183;-63
2021/09/26 10:19:45;;;;;;;9.63;4.75;;;;;;;;;;5046553;28;20084;-65
2021/09/26 10:22:15;;;;;;;11.57;4.57;;;;;;;;;;5047706;28;20564;-62
2021/09/26 10:24:43;;;;;;;11.35;3.90;;;;;;;;;;5047843;28;20453;-64
2021/09/26 10:27:11;;;;;;;12.73;6.63;;;;;;;;;;5046677;28;20040;-62
2021/09/26 10:29:37;;;;;;;8.68;3.42;;;;;;;;;;5045048;28;20045;-62
2021/09/26 10:32:05;;;;;;;15.40;7.82;;;;;;;;;;5046140;28;20083;-63
2021/09/26 10:34:31;;;;;;;12.20;4.85;;;;;;;;;;5047154;28;20128;-61
2021/09/26 10:36:57;;;;;;;13.40;4.32;;;;;;;;;;5049015;28;20512;-62
2021/09/26 10:39:26;;;;;;;13.15;6.32;;;;;;;;;;5049694;28;20087;-62
2021/09/26 10:42:12;;;;;;;7.50;3.60;;;;;;;;;;5027463;28;20712;-63
2021/09/26 10:44:45;;;;;;;12.00;5.07;;;;;;;;;;5031518;28;20049;-62
2021/09/26 10:47:18;;;;;;;9.57;4.07;;;;;;;;;;5042295;28;20037;-63
2021/09/26 10:49:47;;;;;;;16.77;3.83;;;;;;;;;;5046783;28;20105;-62
2021/09/26 10:52:23;;;;;;;10.52;3.55;;;;;;;;;;5046392;28;20036;-63
2021/09/26 10:54:50;;;;;;;8.27;3.50;;;;;;;;;;5046481;28;20041;-63
2021/09/26 10:57:19;;;;;;;9.15;3.35;;;;;;;;;;5046171;28;20098;-63
2021/09/26 10:59:46;;;;;;;6.90;3.40;;;;;;;;;;5046093;28;20045;-63
2021/09/26 11:02:22;;;;;;;10.75;3.67;;;;;;;;;;5029674;28;20065;-63
2021/09/26 11:04:48;;;;;;;11.00;3.88;;;;;;;;;;5026461;28;20037;-64
2021/09/26 11:07:27;;;;;;;7.60;3.60;;;;;;;;;;5026476;28;20051;-62
2021/09/26 11:09:56;;;;;;;7.10;3.33;;;;;;;;;;5020870;28;20045;-63
2021/09/26 11:12:37;;;;;;;10.88;2.88;;;;;;;;;;5025915;28;20044;-63
2021/09/26 11:15:05;;;;;;;10.10;3.75;;;;;;;;;;5006307;28;20048;-63
2021/09/26 11:17:41;;;;;;;12.23;3.40;;;;;;;;;;5024338;28;20103;-63
2021/09/26 11:20:07;;;;;;;7.05;3.72;;;;;;;;;;5025959;28;20045;-63
2021/09/26 11:22:33;;;;;;;18.65;3.60;;;;;;;;;;5026226;28;20052;-62
2021/09/26 11:25:00;;;;;;;10.02;3.40;;;;;;;;;;5039340;28;20073;-62
2021/09/26 11:27:36;;;;;;;13.45;3.97;;;;;;;;;;5045362;28;20045;-62
2021/09/26 11:30:02;;;;;;;8.45;3.05;;;;;;;;;;5046419;28;20037;-63
2021/09/26 11:32:33;;;;;;;6.80;3.50;;;;;;;;;;5045099;28;20045;-63
2021/09/26 11:35:01;;;;;;;23.58;10.80;;;;;;;;;;5046052;28;20063;-63
2021/09/26 11:37:37;;;;;;;13.95;3.53;;;;;;;;;;5046810;28;20047;-63
2021/09/26 11:40:07;;;;;;;8.23;3.63;;;;;;;;;;5045054;28;20051;-62
2021/09/26 11:42:37;;;;;;;9.43;3.70;;;;;;;;;;5045399;28;20040;-63
2021/09/26 11:45:05;;;;;;;13.00;3.75;;;;;;;;;;5041819;28;20032;-64
2021/09/26 11:47:31;;;;;;;7.85;3.38;;;;;;;;;;5042083;28;20045;-63
2021/09/26 11:50:07;;;;;;;8.00;2.97;;;;;;;;;;5045449;28;20039;-63
2021/09/26 11:52:37;;;;;;;9.45;3.22;;;;;;;;;;5045681;28;20114;-63
2021/09/26 11:55:03;;;;;;;11.68;3.15;;;;;;;;;;5044657;28;20048;-63
2021/09/26 11:57:29;;;;;;;12.45;3.28;;;;;;;;;;5044971;28;20101;-62
2021/09/26 11:59:55;;;;;;;6.93;3.58;;;;;;;;;;5045492;28;20075;-63
2021/09/26 12:02:21;;;;;;;7.25;2.97;;;;;;;;;;5037396;28;20033;-64
2021/09/26 12:04:47;;;;;;;8.85;3.28;;;;;;;;;;5045328;28;20472;-63
2021/09/26 12:07:14;;;;;;;9.05;3.13;;;;;;;;;;5049164;28;20048;-63
2021/09/26 12:09:50;;;;;;;9.85;3.30;;;;;;;;;;5044915;28;20037;-63
2021/09/26 12:12:16;;;;;;;;;;;;;;;;;;5046107;28;20047;-62
2021/09/26 12:14:52;;;;;;;5.53;2.63;;;;;;;;;;5048279;28;19916;-63
2021/09/26 12:17:18;;;;;;;;;;;;;;;;;;5048354;28;20099;-62
2021/09/26 12:19:45;;;;;;;8.10;3.43;;;;;;;;;;5049224;28;19920;-63
2021/09/26 12:22:13;;;;;;;11.52;5.97;;;;;;;;;;5049510;28;20045;-63
2021/09/26 12:24:42;;;;;;;5.63;3.65;;;;;;;;;;5049906;28;20124;-62
2021/09/26 12:27:23;;;;;;;8.63;4.38;;;;;;;;;;5045387;28;20045;-62
2021/09/26 12:29:51;;;;;;;11.93;4.25;;;;;;;;;;5044147;28;20032;-63
2021/09/26 12:32:17;;;;;;;12.13;5.32;;;;;;;;;;5043385;28;20040;-62
2021/09/26 12:34:45;;;;;;;10.00;3.90;;;;;;;;;;5046954;28;20045;-64
2021/09/26 12:37:22;;;;;;;7.90;4.13;;;;;;;;;;5051383;28;20614;-64
2021/09/26 12:39:51;;;;;;;8.30;3.47;;;;;;;;;;5046547;28;20056;-64
2021/09/26 12:42:26;;;;;;;13.43;4.57;;;;;;;;;;5048551;28;20131;-63
2021/09/26 12:44:52;;;;;;;9.18;4.43;;;;;;;;;;5048849;28;20037;-63
2021/09/26 12:47:21;;;;;;;6.40;3.28;;;;;;;;;;5046168;28;20049;-64
2021/09/26 12:49:47;;;;;;;10.98;3.75;;;;;;;;;;5048826;28;20123;-64
2021/09/26 12:52:16;;;;;;;12.95;4.57;;;;;;;;;;5048580;28;20041;-63
2021/09/26 12:54:48;;;;;;;13.80;6.55;;;;;;;;;;5048347;28;20044;-64
2021/09/26 12:57:15;;;;;;;12.50;6.68;;;;;;;;;;5048349;28;20052;-64
2021/09/26 12:59:47;;;;;;;17.95;8.88;;;;;;;;;;5048081;28;20685;-64
2021/09/26 13:02:29;;;;;;;16.55;8.45;;;;;;;;;;5048427;28;20506;-64
2021/09/26 13:04:58;;;;;;;11.57;5.22;;;;;;;;;;5049103;28;20041;-64
2021/09/26 13:07:25;;;;;;;13.07;3.88;;;;;;;;;;5082389;28;20052;-63
2021/09/26 13:09:59;;;;;;;8.25;4.07;;;;;;;;;;5041108;28;20098;-64
2021/09/26 13:12:35;;;;;;;11.32;4.22;;;;;;;;;;5043398;28;20041;-63
2021/09/26 13:15:07;;;;;;;9.65;3.97;;;;;;;;;;5048913;28;20040;-64
2021/09/26 13:17:33;;;;;;;11.82;3.92;;;;;;;;;;5046596;28;20106;-63
2021/09/26 13:20:13;;;;;;;8.45;3.40;;;;;;;;;;5047886;28;20043;-64
2021/09/26 13:22:39;;;;;;;14.80;4.75;;;;;;;;;;5048425;28;20037;-64
2021/09/26 13:25:08;;;;;;;9.88;4.25;;;;;;;;;;5047949;28;20513;-63
2021/09/26 13:27:37;;;;;;;7.43;3.50;;;;;;;;;;5042630;28;20069;-63
2021/09/26 13:30:18;;;;;;;7.93;3.55;;;;;;;;;;5047928;28;20040;-63
2021/09/26 13:32:52;;;;;;;7.72;3.00;;;;;;;;;;5027635;28;20041;-64
2021/09/26 13:35:20;;;;;;;6.35;3.22;;;;;;;;;;5028074;28;20120;-64
2021/09/26 13:38:03;;;;;;;9.77;2.83;;;;;;;;;;5032518;28;20033;-62
2021/09/26 13:40:31;;;;;;;7.60;3.05;;;;;;;;;;5027614;28;20042;-63
2021/09/26 13:42:59;;;;;;;5.90;3.50;;;;;;;;;;5026429;28;20059;-64
2021/09/26 13:45:25;;;;;;;7.13;3.25;;;;;;;;;;5029245;28;20048;-63
2021/09/26 13:47:51;;;;;;;11.20;3.42;;;;;;;;;;5046260;28;20103;-63
2021/09/26 13:50:17;;;;;;;9.88;3.95;;;;;;;;;;5047607;28;20037;-63
2021/09/26 13:52:43;;;;;;;6.97;2.83;;;;;;;;;;5047301;28;20037;-63
2021/09/26 13:55:09;;;;;;;5.45;2.90;;;;;;;;;;5047926;28;20127;-63
2021/09/26 13:57:35;;;;;;;7.78;3.35;;;;;;;;;;5045864;28;20076;-64
2021/09/26 14:00:02;;;;;;;7.28;2.80;;;;;;;;;;5047790;28;20517;-64
2021/09/26 14:02:28;;;;;;;4.15;2.50;;;;;;;;;;5046965;28;20501;-64
2021/09/26 14:04:55;;;;;;;;;;;;;;;;;;5047787;28;20037;-63
2021/09/26 14:07:21;;;;;;;5.13;2.25;;;;;;;;;;5051314;28;19920;-64
2021/09/26 14:09:48;;;;;;;6.85;2.42;;;;;;;;;;5047091;28;20037;-63
2021/09/26 14:12:14;;;;;;;4.60;2.55;;;;;;;;;;5047130;28;20044;-63
2021/09/26 14:14:41;;;;;;;7.70;2.90;;;;;;;;;;5046993;28;20037;-64
2021/09/26 14:17:08;;;;;;;7.68;2.75;;;;;;;;;;5045559;28;20063;-64
2021/09/26 14:19:34;;;;;;;4.50;2.88;;;;;;;;;;5046217;28;20075;-63
2021/09/26 14:22:00;;;;;;;;;;;;;;;;;;5046013;28;20068;-62
2021/09/26 14:24:26;;;;;;;6.17;2.57;;;;;;;;;;5046445;28;20404;-63